Lost Hills, California
Current Conditions -  °F | °C
As of 12:54 AM on Saturday 25 Oct 2014 (Local Time) from KBFL Reporting Station
Clear Clear  
Wind Chill: 64°   Ceiling: Unl
Heat Index: 64°   Visibility: 10mi
Dew Point: 46°   Wind: 6mph
Humidity: 52%   Direction: 280°W
Pressure: 29.95"   Gusts: NA
Location:  35.62°N, 119.7°W
Report Text: KBFL 250754Z AUTO 28005KT 10SM CLR 18/08 A2995 RMK AO2 SLP138 T01780078 402890128
Loading
Personal Weather Stations






























Interactive Weather Map
Tropical Storm Tracking
New forecast layout! Learn more

10-Day Weather Forecast

Advertisements
Track Severe Weather on mobile